This is the latest recevied weather packets stored in our database for station/object IU2PLZ-10. If no packets are shown the sender has not sent any weather packets the latest 10 day(s).
| Time | Temp. | Humidity | Pressure | Rain* | Wind** | Luminosity | Snow |
|---|---|---|---|---|---|---|---|
| 1777449662 | 23.89° C | 29% | 966.1 hPa | - | - | - | - |
| 1777448762 | 23.89° C | 29% | 965.2 hPa | - | - | - | - |
| 1777447862 | 23.89° C | 30% | 965.8 hPa | - | - | - | - |
| 1777446962 | 23.33° C | 29% | 965.8 hPa | - | - | - | - |
| 1777446062 | 23.33° C | 29% | 965.7 hPa | - | - | - | - |
| 1777445162 | 23.33° C | 29% | 965.6 hPa | - | - | - | - |
| 1777444261 | 22.78° C | 29% | 964.8 hPa | - | - | - | - |
| 1777443361 | 23.33° C | 29% | 965.4 hPa | - | - | - | - |
| 1777442461 | 23.89° C | 29% | 965.4 hPa | - | - | - | - |
| 1777441561 | 24.44° C | 30% | 965.2 hPa | - | - | - | - |
| 1777440661 | 23.89° C | 31% | 965.1 hPa | - | - | - | - |
| 1777439761 | 22.22° C | 31% | 964.4 hPa | - | - | - | - |
| 1777438860 | 21.11° C | 31% | 965.1 hPa | - | - | - | - |
| 1777437960 | 20° C | 31% | 964.3 hPa | - | - | - | - |
| 1777437060 | 20.56° C | 31% | 964.8 hPa | - | - | - | - |
| 1777436160 | 19.44° C | 30% | 963.3 hPa | - | - | - | - |
| 1777435260 | 20.56° C | 30% | 964.7 hPa | - | - | - | - |
| 1777434360 | 20.56° C | 29% | 964.7 hPa | - | - | - | - |
| 1777433459 | 20° C | 28% | 963.9 hPa | - | - | - | - |
| 1777432559 | 20.56° C | 28% | 964.7 hPa | - | - | - | - |
| 1777431659 | 20° C | 26% | 963.8 hPa | - | - | - | - |
| 1777430759 | 20° C | 26% | 964 hPa | - | - | - | - |
| 1777429859 | 20.56° C | 26% | 964 hPa | - | - | - | - |
| 1777428959 | 20.56° C | 26% | 964.6 hPa | - | - | - | - |
| 1777428058 | 20.56° C | 26% | 964.5 hPa | - | - | - | - |
* Rain since midnight (hover to see other rain measurements)
** Current wind speed in m/s (hover to see current wind gust speed)